Time;durP1;ratioP1;P1;durP2;ratioP2;P2;SDS_P1;SDS_P2;PMS_P1;PMS_P2;Temp;Humidity;BMP_temperature;BMP_pressure;BME280_temperature;BME280_humidity;BME280_pressure;Samples;Min_cycle;Max_cycle;Signal;HPM_P1;HPM_P2
2022/09/27 00:02:19;;;;;;;12.85;1.65;;;11.40;99.90;;;;;;5029877;28;20033;-75
2022/09/27 00:04:45;;;;;;;13.10;1.40;;;11.40;99.90;;;;;;5029376;28;20075;-75
2022/09/27 00:07:10;;;;;;;15.25;1.95;;;11.40;99.90;;;;;;5029983;28;20034;-75
2022/09/27 00:09:36;;;;;;;22.48;2.33;;;11.30;99.90;;;;;;5029820;28;20021;-75
2022/09/27 00:12:02;;;;;;;14.40;2.22;;;11.30;99.90;;;;;;5029118;28;20045;-75
2022/09/27 00:14:28;;;;;;;21.38;1.85;;;11.20;99.90;;;;;;5030454;28;20030;-74
2022/09/27 00:16:54;;;;;;;12.20;1.45;;;11.20;99.90;;;;;;5028423;28;20389;-76
2022/09/27 00:19:22;;;;;;;12.88;2.42;;;11.20;99.90;;;;;;5029741;28;20060;-75
2022/09/27 00:21:50;;;;;;;11.15;1.88;;;11.20;99.90;;;;;;5028893;28;20052;-75
2022/09/27 00:24:19;;;;;;;11.18;2.17;;;11.20;99.90;;;;;;5028368;28;20025;-75
2022/09/27 00:26:46;;;;;;;9.07;1.40;;;11.20;99.90;;;;;;5029017;28;20547;-75
2022/09/27 00:29:12;;;;;;;9.70;1.60;;;11.20;99.90;;;;;;5030028;28;20086;-75
2022/09/27 00:31:38;;;;;;;13.07;1.80;;;11.30;99.90;;;;;;5031465;28;20022;-75
2022/09/27 00:34:05;;;;;;;10.15;1.50;;;11.20;99.90;;;;;;5033502;28;20041;-75
2022/09/27 00:36:32;;;;;;;14.25;1.85;;;11.20;99.90;;;;;;5034079;28;20029;-75
2022/09/27 00:38:59;;;;;;;12.68;2.17;;;11.20;99.90;;;;;;5020821;28;20109;-75
2022/09/27 00:41:31;;;;;;;10.90;1.70;;;11.20;99.90;;;;;;5022833;28;20028;-75
2022/09/27 00:43:59;;;;;;;12.85;1.55;;;11.20;99.90;;;;;;5032932;28;20025;-75
2022/09/27 00:46:46;;;;;;;15.85;2.03;;;11.20;99.90;;;;;;5020313;28;20104;-76
2022/09/27 00:49:24;;;;;;;15.32;1.90;;;11.20;99.90;;;;;;5033318;28;20041;-77
2022/09/27 00:51:58;;;;;;;8.95;1.75;;;11.20;99.90;;;;;;5030986;28;20053;-76
2022/09/27 00:54:27;;;;;;;14.38;2.03;;;11.20;99.90;;;;;;5031531;28;20399;-75
2022/09/27 00:56:53;;;;;;;10.07;1.50;;;11.30;99.90;;;;;;5033626;28;20113;-75
2022/09/27 00:59:26;;;;;;;15.02;1.88;;;11.30;99.90;;;;;;5033623;28;20049;-76
2022/09/27 01:01:52;;;;;;;14.63;2.25;;;11.40;99.90;;;;;;5028884;28;20030;-75
2022/09/27 01:04:23;;;;;;;8.05;1.85;;;11.40;99.90;;;;;;5021167;28;20026;-75
2022/09/27 01:06:49;;;;;;;14.65;1.67;;;11.40;99.90;;;;;;5031779;28;20033;-75
2022/09/27 01:09:15;;;;;;;13.70;1.90;;;11.50;99.90;;;;;;5032932;28;20021;-75
2022/09/27 01:11:53;;;;;;;10.40;1.85;;;11.50;99.90;;;;;;5027406;28;20030;-75
2022/09/27 01:14:44;;;;;;;9.90;1.55;;;11.50;99.90;;;;;;5023981;28;20021;-76
2022/09/27 01:17:38;;;;;;;15.23;1.52;;;11.60;99.90;;;;;;5019403;28;20033;-76
2022/09/27 01:20:14;;;;;;;15.65;2.10;;;11.60;99.90;;;;;;5032860;28;20091;-75
2022/09/27 01:23:12;;;;;;;15.50;1.85;;;11.60;99.90;;;;;;5031663;28;20124;-75
2022/09/27 01:25:49;;;;;;;7.95;1.40;;;11.60;99.90;;;;;;5027137;28;20037;-75
2022/09/27 01:28:15;;;;;;;13.82;1.95;;;11.70;99.90;;;;;;5033367;28;20029;-75
2022/09/27 01:30:49;;;;;;;12.85;1.42;;;11.70;99.90;;;;;;5032783;28;20052;-75
2022/09/27 01:33:38;;;;;;;8.27;1.63;;;11.70;99.90;;;;;;5033437;28;20025;-75
2022/09/27 01:36:19;;;;;;;11.68;1.65;;;11.70;99.90;;;;;;5031959;28;20021;-75
2022/09/27 01:39:07;;;;;;;12.77;1.40;;;11.70;99.90;;;;;;5025727;28;20037;-75
2022/09/27 01:41:42;;;;;;;8.23;1.58;;;11.70;99.90;;;;;;5032632;28;20057;-77
2022/09/27 01:44:13;;;;;;;7.50;1.20;;;11.70;99.90;;;;;;5021183;28;20083;-75
2022/09/27 01:46:44;;;;;;;9.77;1.58;;;11.70;99.90;;;;;;5033104;28;20567;-76
2022/09/27 01:49:16;;;;;;;12.20;1.55;;;11.60;99.90;;;;;;5034084;28;20045;-75
2022/09/27 01:51:52;;;;;;;11.25;1.55;;;11.60;99.90;;;;;;5031958;28;20056;-75
2022/09/27 01:54:23;;;;;;;11.57;1.27;;;11.60;99.90;;;;;;5032737;28;20037;-75
2022/09/27 01:56:54;;;;;;;11.63;1.20;;;11.60;99.90;;;;;;5013166;28;20373;-75
2022/09/27 01:59:32;;;;;;;14.40;1.48;;;11.60;99.90;;;;;;5026239;28;20281;-75
2022/09/27 02:02:03;;;;;;;10.60;1.42;;;11.50;99.90;;;;;;5019623;28;20013;-75
2022/09/27 02:04:32;;;;;;;14.32;1.77;;;11.50;99.90;;;;;;5032561;28;20029;-75
2022/09/27 02:07:19;;;;;;;9.63;1.50;;;11.50;99.90;;;;;;5031524;28;20033;-74
2022/09/27 02:10:03;;;;;;;10.20;1.27;;;11.50;99.90;;;;;;5018650;28;20034;-75
2022/09/27 02:12:40;;;;;;;12.95;1.88;;;11.50;99.90;;;;;;5032308;28;20393;-75
2022/09/27 02:15:12;;;;;;;6.95;1.20;;;11.40;99.90;;;;;;5030989;28;20132;-75
2022/09/27 02:17:58;;;;;;;11.57;1.55;;;11.40;99.90;;;;;;5032223;28;20079;-75
2022/09/27 02:20:32;;;;;;;9.02;1.25;;;11.50;99.90;;;;;;5032963;28;20237;-75
2022/09/27 02:23:20;;;;;;;11.18;1.38;;;11.50;99.90;;;;;;5022510;28;20030;-76
2022/09/27 02:25:59;;;;;;;16.98;1.65;;;11.60;99.90;;;;;;5031288;28;20029;-75
2022/09/27 02:28:33;;;;;;;8.82;1.20;;;11.50;99.90;;;;;;5031300;28;20401;-76
2022/09/27 02:30:59;;;;;;;8.83;1.20;;;11.50;99.90;;;;;;5031632;28;20041;-76
2022/09/27 02:33:52;;;;;;;13.13;1.13;;;11.40;99.90;;;;;;5031688;28;20122;-76
2022/09/27 02:36:20;;;;;;;11.00;1.67;;;11.40;99.90;;;;;;5018673;28;20040;-75
2022/09/27 02:38:46;;;;;;;12.05;1.50;;;11.40;99.90;;;;;;5031359;28;20481;-76
2022/09/27 02:41:16;;;;;;;7.35;1.05;;;11.30;99.90;;;;;;5031448;28;20489;-76
2022/09/27 02:43:44;;;;;;;9.30;1.30;;;11.30;99.90;;;;;;5031748;28;20033;-76
2022/09/27 02:46:55;;;;;;;9.52;1.38;;;11.30;99.90;;;;;;5031502;28;20022;-76
2022/09/27 02:49:48;;;;;;;10.57;1.30;;;11.30;99.90;;;;;;5031223;28;20057;-76
2022/09/27 02:52:32;;;;;;;8.55;1.00;;;11.20;99.90;;;;;;5029583;28;20400;-76
2022/09/27 02:55:29;;;;;;;11.38;1.10;;;11.20;99.90;;;;;;5027080;28;20027;-77
2022/09/27 02:58:19;;;;;;;10.00;1.02;;;11.10;99.90;;;;;;5027406;28;20028;-76
2022/09/27 03:01:04;;;;;;;11.63;1.10;;;11.10;99.90;;;;;;5037595;28;20063;-76
2022/09/27 03:03:56;;;;;;;11.18;1.20;;;11.10;99.90;;;;;;5034589;28;20022;-76
2022/09/27 03:06:22;;;;;;;10.18;1.40;;;11.10;99.90;;;;;;5031316;28;20033;-76
2022/09/27 03:08:49;;;;;;;16.50;1.50;;;11.10;99.90;;;;;;5030147;28;20285;-76
2022/09/27 03:11:14;;;;;;;12.07;1.40;;;11.10;99.90;;;;;;5031992;28;20478;-76
2022/09/27 03:13:41;;;;;;;11.90;1.73;;;11.00;99.90;;;;;;5032371;28;20075;-76
2022/09/27 03:16:06;;;;;;;7.85;1.15;;;11.00;99.90;;;;;;5031627;28;20487;-76
2022/09/27 03:18:32;;;;;;;6.05;1.08;;;11.00;99.90;;;;;;5020085;28;20034;-76
2022/09/27 03:20:58;;;;;;;8.82;1.60;;;11.00;99.90;;;;;;5031909;28;20021;-76
2022/09/27 03:23:23;;;;;;;10.50;1.30;;;11.00;99.90;;;;;;5016999;28;20017;-76
2022/09/27 03:25:50;;;;;;;7.55;1.15;;;10.90;99.90;;;;;;5031478;28;20029;-75
2022/09/27 03:28:16;;;;;;;10.60;1.45;;;11.00;99.90;;;;;;5025878;28;20083;-76
2022/09/27 03:30:44;;;;;;;7.68;1.00;;;10.90;99.90;;;;;;5056720;28;20044;-76
2022/09/27 03:33:10;;;;;;;10.93;1.45;;;10.90;99.90;;;;;;5024305;28;20033;-76
2022/09/27 03:35:36;;;;;;;7.43;1.33;;;10.90;99.90;;;;;;5028713;28;20055;-75
2022/09/27 03:38:01;;;;;;;8.95;1.10;;;10.90;99.90;;;;;;5030000;28;20363;-76
2022/09/27 03:40:27;;;;;;;12.45;1.40;;;10.90;99.90;;;;;;5029983;28;20104;-75
2022/09/27 03:42:53;;;;;;;15.82;1.65;;;10.90;99.90;;;;;;5031053;28;20485;-74
2022/09/27 03:45:19;;;;;;;6.63;1.10;;;10.90;99.90;;;;;;5030738;28;20049;-76
2022/09/27 03:47:45;;;;;;;5.28;0.85;;;10.90;99.90;;;;;;5030307;28;20430;-76
2022/09/27 03:50:11;;;;;;;6.90;0.98;;;10.80;99.90;;;;;;5027321;28;20030;-76
2022/09/27 03:52:37;;;;;;;8.48;1.20;;;10.70;99.90;;;;;;5016364;28;20124;-76
2022/09/27 03:55:03;;;;;;;9.27;1.05;;;10.80;99.90;;;;;;5031073;28;20100;-75
2022/09/27 03:57:30;;;;;;;12.43;1.17;;;10.70;99.90;;;;;;5030458;28;20029;-75
2022/09/27 03:59:58;;;;;;;5.82;1.20;;;10.70;99.90;;;;;;5017639;28;20021;-74
2022/09/27 04:02:25;;;;;;;9.38;1.52;;;10.60;99.90;;;;;;5030821;28;20028;-74
2022/09/27 04:04:51;;;;;;;8.13;1.17;;;10.60;99.90;;;;;;5031413;28;20021;-74
2022/09/27 04:07:16;;;;;;;6.57;1.23;;;10.60;99.90;;;;;;5030248;28;20116;-74
2022/09/27 04:09:43;;;;;;;6.63;1.10;;;10.50;99.90;;;;;;5029641;28;20030;-75
2022/09/27 04:12:09;;;;;;;11.20;1.17;;;10.60;99.90;;;;;;5030676;28;20049;-74
2022/09/27 04:14:35;;;;;;;10.10;1.27;;;10.60;99.90;;;;;;5029295;28;20050;-74
2022/09/27 04:17:00;;;;;;;8.73;1.40;;;10.60;99.90;;;;;;5029948;28;20114;-74
2022/09/27 04:19:26;;;;;;;8.43;1.27;;;10.60;99.90;;;;;;5030489;28;20021;-74
2022/09/27 04:21:52;;;;;;;15.43;1.30;;;10.60;99.90;;;;;;5030100;28;20021;-74
2022/09/27 04:24:17;;;;;;;11.02;1.23;;;10.60;99.90;;;;;;5030256;28;20022;-74
2022/09/27 04:26:43;;;;;;;9.07;1.27;;;10.60;99.90;;;;;;5029641;28;20099;-74
2022/09/27 04:29:09;;;;;;;6.93;1.08;;;10.60;99.90;;;;;;5023767;28;20018;-74
2022/09/27 04:31:36;;;;;;;6.50;1.02;;;10.60;99.90;;;;;;5029412;28;20025;-74
2022/09/27 04:34:06;;;;;;;6.57;1.50;;;10.60;99.90;;;;;;5030402;28;20021;-74
2022/09/27 04:36:32;;;;;;;9.13;1.40;;;10.60;99.90;;;;;;5036346;28;20104;-73
2022/09/27 04:38:59;;;;;;;9.48;1.30;;;10.60;99.90;;;;;;5039194;28;20474;-73
2022/09/27 04:41:27;;;;;;;11.75;1.60;;;10.60;99.90;;;;;;5021465;28;20017;-74
2022/09/27 04:43:56;;;;;;;5.78;1.27;;;10.60;99.90;;;;;;5026459;28;20022;-74
2022/09/27 04:46:23;;;;;;;10.30;1.40;;;10.60;99.90;;;;;;5015431;28;20362;-73
2022/09/27 04:48:48;;;;;;;14.35;1.48;;;10.50;99.90;;;;;;5036880;28;20470;-73
2022/09/27 04:51:16;;;;;;;12.38;1.48;;;10.60;99.90;;;;;;5040955;28;20097;-73
2022/09/27 04:53:45;;;;;;;8.25;1.63;;;10.60;99.90;;;;;;5044971;28;20063;-73
2022/09/27 04:56:12;;;;;;;15.07;1.50;;;10.50;99.90;;;;;;5038972;28;20071;-73
2022/09/27 04:58:38;;;;;;;16.98;1.98;;;10.60;99.90;;;;;;5045460;28;20032;-73
2022/09/27 05:01:04;;;;;;;13.35;1.42;;;10.60;99.90;;;;;;5045290;28;20032;-73
2022/09/27 05:03:31;;;;;;;12.75;1.50;;;10.60;99.90;;;;;;5034287;28;20071;-73
2022/09/27 05:05:57;;;;;;;11.55;1.50;;;10.60;99.90;;;;;;5037142;28;20068;-73
2022/09/27 05:08:22;;;;;;;6.15;0.85;;;10.50;99.90;;;;;;5025192;28;20033;-73
2022/09/27 05:10:49;;;;;;;8.95;1.13;;;10.60;99.90;;;;;;5035823;28;20553;-74
2022/09/27 05:13:14;;;;;;;6.25;0.95;;;10.60;99.90;;;;;;5039142;28;20408;-74
2022/09/27 05:15:41;;;;;;;10.68;1.17;;;10.50;99.90;;;;;;5024929;28;20024;-76
2022/09/27 05:18:08;;;;;;;8.43;1.25;;;10.60;99.90;;;;;;5032382;28;20025;-75
2022/09/27 05:20:38;;;;;;;5.85;1.00;;;10.60;99.90;;;;;;5035768;28;20018;-76
2022/09/27 05:23:04;;;;;;;6.50;0.82;;;10.60;99.90;;;;;;5033309;28;20050;-75
2022/09/27 05:25:31;;;;;;;8.63;1.30;;;10.60;99.90;;;;;;5032608;28;20080;-75
2022/09/27 05:27:57;;;;;;;7.45;1.15;;;10.60;99.90;;;;;;5029086;28;20033;-76
2022/09/27 05:30:24;;;;;;;7.10;1.23;;;10.60;99.90;;;;;;5036522;28;20018;-75
2022/09/27 05:32:51;;;;;;;6.82;1.30;;;10.60;99.90;;;;;;5042741;28;20056;-76
2022/09/27 05:35:18;;;;;;;6.82;1.25;;;10.60;99.90;;;;;;5033088;28;20490;-75
2022/09/27 05:37:50;;;;;;;9.77;1.38;;;10.60;99.90;;;;;;5026674;28;20024;-75
2022/09/27 05:40:15;;;;;;;10.70;1.33;;;10.60;99.90;;;;;;5033179;28;20025;-75
2022/09/27 05:42:41;;;;;;;8.20;1.23;;;10.60;99.90;;;;;;5031651;28;20485;-75
2022/09/27 05:45:07;;;;;;;9.10;0.90;;;10.60;99.90;;;;;;5019642;28;20132;-72
2022/09/27 05:47:32;;;;;;;13.20;1.35;;;10.60;99.90;;;;;;5026462;28;20038;-74
2022/09/27 05:49:58;;;;;;;7.38;1.10;;;10.60;99.90;;;;;;5029632;28;20023;-75
2022/09/27 05:52:25;;;;;;;6.38;1.20;;;10.60;99.90;;;;;;5033275;28;20575;-75
2022/09/27 05:54:50;;;;;;;8.93;1.13;;;10.60;99.90;;;;;;5033136;28;20017;-75
2022/09/27 05:57:16;;;;;;;9.90;1.27;;;10.60;99.90;;;;;;5031778;28;20383;-75
2022/09/27 05:59:42;;;;;;;6.13;1.10;;;10.70;99.90;;;;;;5032172;28;20617;-77
2022/09/27 06:02:10;;;;;;;8.73;1.83;;;10.60;99.90;;;;;;5031783;28;20018;-75
2022/09/27 06:04:35;;;;;;;8.65;1.23;;;10.70;99.90;;;;;;5031667;28;20485;-75
2022/09/27 06:07:01;;;;;;;16.40;1.48;;;10.60;99.90;;;;;;5032611;28;20042;-73
2022/09/27 06:09:27;;;;;;;16.55;1.77;;;10.60;99.90;;;;;;5031212;28;20030;-73
2022/09/27 06:11:53;;;;;;;6.30;1.27;;;10.60;99.90;;;;;;5031204;28;20022;-73
2022/09/27 06:14:19;;;;;;;9.20;1.60;;;10.70;99.90;;;;;;5026951;28;20024;-74
2022/09/27 06:16:45;;;;;;;11.25;2.28;;;10.60;99.90;;;;;;5030761;28;20017;-73
2022/09/27 06:19:10;;;;;;;8.00;1.40;;;10.70;99.90;;;;;;5031616;28;20895;-73
2022/09/27 06:21:36;;;;;;;5.40;1.48;;;10.60;99.90;;;;;;5030621;28;20045;-76
2022/09/27 06:24:02;;;;;;;9.07;1.33;;;10.70;99.90;;;;;;5032138;28;20017;-74
2022/09/27 06:26:27;;;;;;;10.75;1.48;;;10.70;99.90;;;;;;5031194;28;20133;-75
2022/09/27 06:28:53;;;;;;;8.63;1.35;;;10.70;99.90;;;;;;5030624;28;20045;-73
2022/09/27 06:31:20;;;;;;;11.80;1.63;;;10.70;99.90;;;;;;5031673;28;20056;-72
2022/09/27 06:33:49;;;;;;;9.48;1.67;;;10.70;99.90;;;;;;5031874;28;20021;-73
2022/09/27 06:36:15;;;;;;;6.85;1.50;;;10.70;99.90;;;;;;5031276;28;20045;-72
2022/09/27 06:38:40;;;;;;;11.10;2.47;;;10.70;99.90;;;;;;5026973;28;20018;-72
2022/09/27 06:41:08;;;;;;;9.00;1.80;;;10.70;99.90;;;;;;5031888;28;20058;-73
2022/09/27 06:43:33;;;;;;;10.05;1.98;;;10.70;99.90;;;;;;5031515;28;20029;-73
2022/09/27 06:46:04;;;;;;;8.85;1.75;;;10.70;99.90;;;;;;5030769;28;20021;-73
2022/09/27 06:48:30;;;;;;;10.02;1.60;;;10.80;99.90;;;;;;5031195;28;20064;-72
2022/09/27 06:50:56;;;;;;;11.50;1.67;;;10.80;99.90;;;;;;5030554;28;20010;-73
2022/09/27 06:53:23;;;;;;;10.40;1.40;;;10.80;99.90;;;;;;5018774;28;20049;-75
2022/09/27 06:55:50;;;;;;;12.25;1.70;;;10.80;99.90;;;;;;5031333;28;20028;-74
2022/09/27 07:01:01;;;;;;;;;;;10.80;99.90;;;;;;5031913;28;20064;-75
2022/09/27 07:03:30;;;;;;;7.13;1.50;;;10.70;99.90;;;;;;5031308;28;19913;-73
2022/09/27 07:06:01;;;;;;;9.98;1.67;;;10.70;99.90;;;;;;5030976;28;20482;-73
2022/09/27 07:08:28;;;;;;;8.73;1.20;;;10.70;99.90;;;;;;5027746;28;20087;-73
2022/09/27 07:10:55;;;;;;;9.30;1.58;;;10.70;99.90;;;;;;5035786;28;20025;-73
2022/09/27 07:13:22;;;;;;;10.18;1.30;;;10.70;99.90;;;;;;5030849;28;20037;-73
2022/09/27 07:15:47;;;;;;;12.35;1.73;;;10.60;99.90;;;;;;5031110;28;20029;-73
2022/09/27 07:18:14;;;;;;;16.38;2.13;;;10.70;99.90;;;;;;5025923;28;20104;-73
2022/09/27 07:20:39;;;;;;;11.25;1.38;;;10.60;99.90;;;;;;5031307;28;20048;-73
2022/09/27 07:23:07;;;;;;;9.88;1.15;;;10.70;99.90;;;;;;5030939;28;20481;-72
2022/09/27 07:25:33;;;;;;;7.30;1.02;;;10.60;99.90;;;;;;5030518;28;20024;-73
2022/09/27 07:28:04;;;;;;;10.85;1.00;;;10.60;99.90;;;;;;5030386;28;20429;-73
2022/09/27 07:30:30;;;;;;;6.55;1.15;;;10.60;99.90;;;;;;5026405;28;20022;-74
2022/09/27 07:32:58;;;;;;;7.55;1.13;;;10.60;99.90;;;;;;5030099;28;20572;-73
2022/09/27 07:35:24;;;;;;;6.72;0.80;;;10.60;99.90;;;;;;5027881;28;20029;-73
2022/09/27 07:37:50;;;;;;;7.30;0.73;;;10.70;99.90;;;;;;5041843;28;20021;-73
2022/09/27 07:40:16;;;;;;;8.30;1.15;;;10.70;99.90;;;;;;5030277;28;20030;-75
2022/09/27 07:42:41;;;;;;;4.65;0.70;;;10.70;99.90;;;;;;5017177;28;20393;-73
2022/09/27 07:45:08;;;;;;;4.85;0.73;;;10.70;99.90;;;;;;5027100;28;20022;-73
2022/09/27 07:47:36;;;;;;;6.65;0.80;;;10.70;99.90;;;;;;5028432;28;20021;-73
2022/09/27 07:50:03;;;;;;;5.93;0.80;;;10.80;99.90;;;;;;5030648;28;20024;-74
2022/09/27 07:52:29;;;;;;;5.30;0.80;;;10.80;99.90;;;;;;5029649;28;20320;-73
2022/09/27 07:54:54;;;;;;;5.30;0.75;;;10.80;99.90;;;;;;5029944;28;20083;-73
2022/09/27 07:57:21;;;;;;;6.32;0.90;;;10.90;99.90;;;;;;5030547;28;20021;-73
2022/09/27 07:59:47;;;;;;;4.97;1.05;;;10.90;99.90;;;;;;5028833;28;20021;-73
2022/09/27 08:02:14;;;;;;;4.53;0.68;;;11.00;99.90;;;;;;5029847;28;20296;-73
2022/09/27 08:04:42;;;;;;;8.15;1.05;;;11.00;99.90;;;;;;5018022;28;20046;-73
2022/09/27 08:07:09;;;;;;;3.97;0.65;;;10.90;99.90;;;;;;5027702;28;20047;-73
2022/09/27 08:09:35;;;;;;;5.57;0.65;;;10.90;99.90;;;;;;5029961;28;20029;-73
2022/09/27 08:12:03;;;;;;;6.10;0.80;;;11.00;99.90;;;;;;5029514;28;20017;-73
2022/09/27 08:14:29;;;;;;;4.30;0.80;;;11.00;99.90;;;;;;5027110;28;20114;-73
2022/09/27 08:16:55;;;;;;;9.02;0.95;;;11.10;99.90;;;;;;5030652;28;20082;-72
2022/09/27 08:19:20;;;;;;;9.38;1.10;;;11.10;99.90;;;;;;5023981;28;20477;-72
2022/09/27 08:21:46;;;;;;;7.10;0.90;;;11.10;99.90;;;;;;5020395;28;20026;-73
2022/09/27 08:24:12;;;;;;;5.22;1.02;;;11.10;99.90;;;;;;5025473;28;20520;-73
2022/09/27 08:26:38;;;;;;;5.10;0.85;;;11.10;99.90;;;;;;5028936;28;20092;-73
2022/09/27 08:29:04;;;;;;;4.57;0.90;;;11.10;99.90;;;;;;5029601;28;20025;-73
2022/09/27 08:31:29;;;;;;;7.10;1.20;;;11.10;99.90;;;;;;5030076;28;20496;-73
2022/09/27 08:33:56;;;;;;;6.05;1.10;;;11.10;99.90;;;;;;5029354;28;20021;-73
2022/09/27 08:36:23;;;;;;;9.15;1.60;;;11.10;99.90;;;;;;5029219;28;20440;-73
2022/09/27 08:38:56;;;;;;;6.63;0.98;;;11.10;99.90;;;;;;5029342;28;20033;-73
2022/09/27 08:41:32;;;;;;;5.90;1.23;;;11.10;99.90;;;;;;5029723;28;20029;-73
2022/09/27 08:44:14;;;;;;;7.53;1.48;;;11.10;99.90;;;;;;5030336;28;20788;-73
2022/09/27 08:47:05;;;;;;;7.35;1.30;;;11.10;99.90;;;;;;5020136;28;20021;-72
2022/09/27 08:50:01;;;;;;;6.78;1.23;;;11.20;99.90;;;;;;5029263;28;20032;-73
2022/09/27 08:52:32;;;;;;;6.68;1.20;;;11.20;99.90;;;;;;5030052;28;20053;-72
2022/09/27 08:55:02;;;;;;;9.35;1.35;;;11.20;99.90;;;;;;5033669;28;20025;-73
2022/09/27 08:57:28;;;;;;;10.85;1.58;;;11.30;99.90;;;;;;5033048;28;20038;-72
2022/09/27 09:00:10;;;;;;;5.80;1.27;;;11.40;99.90;;;;;;5033387;28;20018;-72
2022/09/27 09:02:36;;;;;;;8.50;1.13;;;11.40;99.90;;;;;;5025626;28;20065;-72
2022/09/27 09:05:08;;;;;;;5.78;0.90;;;11.50;99.90;;;;;;5031118;28;20033;-72
2022/09/27 09:08:08;;;;;;;10.15;1.08;;;11.50;99.90;;;;;;5029501;28;20040;-72
2022/09/27 09:14:12;;;;;;;4.05;0.88;;;11.70;99.90;;;;;;5022712;28;20401;-73
2022/09/27 09:16:57;;;;;;;6.00;1.20;;;11.90;99.90;;;;;;5032450;28;20393;-73
2022/09/27 09:20:11;;;;;;;5.57;0.93;;;11.90;99.90;;;;;;5024398;28;20038;-73
2022/09/27 09:22:55;;;;;;;11.27;1.30;;;12.00;99.90;;;;;;5021331;28;20404;-72
2022/09/27 09:25:39;;;;;;;7.65;1.15;;;12.10;99.90;;;;;;5032808;28;20029;-72
2022/09/27 09:28:26;;;;;;;7.57;1.20;;;12.10;99.90;;;;;;5014151;28;20072;-73
2022/09/27 09:30:52;;;;;;;8.52;1.33;;;12.20;99.90;;;;;;5022586;28;20041;-74
2022/09/27 09:33:30;;;;;;;10.98;1.45;;;12.10;99.90;;;;;;5025207;28;20033;-72
2022/09/27 09:36:04;;;;;;;7.68;1.30;;;12.20;99.90;;;;;;5030321;28;20025;-72
2022/09/27 09:38:42;;;;;;;9.52;1.27;;;12.10;99.90;;;;;;5032577;28;20017;-73
2022/09/27 09:41:40;;;;;;;11.32;1.10;;;12.10;99.90;;;;;;5024029;28;20477;-73
2022/09/27 09:44:22;;;;;;;4.72;1.00;;;12.00;99.90;;;;;;5032495;28;20025;-72
2022/09/27 09:46:52;;;;;;;4.28;0.90;;;11.90;99.90;;;;;;5031261;28;20033;-72
2022/09/27 09:49:32;;;;;;;8.32;1.08;;;11.90;99.90;;;;;;5031408;28;20032;-73
2022/09/27 09:52:04;;;;;;;4.95;1.10;;;11.80;99.90;;;;;;5032884;28;20045;-72
2022/09/27 09:54:36;;;;;;;5.35;1.10;;;11.70;99.90;;;;;;5046392;28;20492;-72
2022/09/27 09:57:13;;;;;;;6.68;1.38;;;11.60;99.90;;;;;;5022899;28;20018;-72
2022/09/27 09:59:44;;;;;;;5.15;1.10;;;11.50;99.90;;;;;;5029326;28;20033;-73
2022/09/27 10:02:33;;;;;;;4.55;1.00;;;11.40;99.90;;;;;;5033063;28;20022;-73
2022/09/27 10:05:00;;;;;;;4.60;0.98;;;11.30;99.90;;;;;;5033343;28;20026;-72
2022/09/27 10:07:27;;;;;;;7.22;1.20;;;11.10;99.90;;;;;;5062113;28;20543;-72
2022/09/27 10:09:58;;;;;;;8.65;1.25;;;11.00;99.90;;;;;;5027519;28;20442;-72
2022/09/27 10:12:25;;;;;;;4.63;1.00;;;11.00;99.90;;;;;;5031745;28;20440;-72
2022/09/27 10:14:52;;;;;;;4.60;0.90;;;10.90;99.90;;;;;;5020514;28;20038;-72
2022/09/27 10:17:26;;;;;;;4.50;0.77;;;10.80;99.90;;;;;;5032064;28;20374;-73
2022/09/27 10:19:53;;;;;;;4.50;1.10;;;10.80;99.90;;;;;;5029929;28;20478;-73
2022/09/27 10:22:18;;;;;;;3.17;0.88;;;10.70;99.90;;;;;;5028704;28;20014;-72
2022/09/27 10:25:02;;;;;;;4.47;1.05;;;10.70;99.90;;;;;;5024138;28;20024;-72
2022/09/27 10:27:38;;;;;;;7.65;0.90;;;10.70;99.90;;;;;;5036628;28;20493;-72
2022/09/27 10:30:04;;;;;;;4.95;0.73;;;10.70;99.90;;;;;;5037527;28;20040;-74
2022/09/27 10:32:35;;;;;;;2.33;0.77;;;10.60;99.90;;;;;;5028141;28;20029;-72
2022/09/27 10:35:30;;;;;;;5.00;0.90;;;10.60;99.90;;;;;;5025477;28;20017;-72
2022/09/27 10:38:15;;;;;;;5.70;1.30;;;10.70;99.90;;;;;;5027166;28;20017;-72
2022/09/27 10:40:42;;;;;;;4.30;0.93;;;10.70;99.90;;;;;;5031716;28;20382;-72
2022/09/27 10:43:30;;;;;;;7.82;1.20;;;10.70;99.90;;;;;;5031287;28;20034;-72
2022/09/27 10:46:22;;;;;;;4.72;1.08;;;10.70;99.90;;;;;;5029851;28;20013;-72
2022/09/27 10:49:18;;;;;;;5.85;1.00;;;10.80;99.90;;;;;;5026153;28;20441;-73
2022/09/27 10:51:48;;;;;;;6.75;1.30;;;10.90;99.90;;;;;;5031518;28;20107;-74
2022/09/27 10:54:35;;;;;;;3.75;0.90;;;11.00;99.90;;;;;;5030761;28;20456;-73
2022/09/27 10:57:04;;;;;;;8.43;1.33;;;11.00;99.90;;;;;;5020679;28;20049;-73
2022/09/27 10:59:38;;;;;;;5.55;1.20;;;11.10;99.90;;;;;;5034733;28;20096;-73
2022/09/27 11:02:15;;;;;;;4.78;0.90;;;11.00;99.90;;;;;;5041824;28;20029;-72
2022/09/27 11:04:40;;;;;;;4.78;0.88;;;11.10;99.90;;;;;;5031064;28;20457;-73
2022/09/27 11:07:18;;;;;;;6.85;1.15;;;11.10;99.90;;;;;;5030345;28;20072;-73
2022/09/27 11:09:53;;;;;;;4.30;1.13;;;11.10;99.90;;;;;;5030898;28;20026;-73
2022/09/27 11:12:21;;;;;;;5.32;1.30;;;11.10;99.90;;;;;;5031128;28;20022;-73
2022/09/27 11:14:57;;;;;;;5.07;1.15;;;11.20;99.90;;;;;;5029690;28;20068;-73
2022/09/27 11:17:45;;;;;;;3.97;1.17;;;11.20;99.90;;;;;;5019315;28;20032;-74
2022/09/27 11:20:29;;;;;;;4.57;1.23;;;11.30;99.90;;;;;;5030559;28;20033;-73
2022/09/27 11:22:58;;;;;;;5.22;1.48;;;11.40;99.90;;;;;;5030879;28;20026;-73
2022/09/27 11:25:42;;;;;;;3.03;1.23;;;11.40;99.90;;;;;;5019826;28;20026;-73
2022/09/27 11:28:38;;;;;;;7.18;1.38;;;11.50;99.90;;;;;;5030367;28;20041;-73
2022/09/27 11:31:12;;;;;;;6.40;1.38;;;11.60;99.90;;;;;;5018966;28;20040;-73
2022/09/27 11:34:20;;;;;;;3.60;1.27;;;11.70;99.90;;;;;;5030601;28;20077;-73
2022/09/27 11:37:12;;;;;;;4.97;1.10;;;11.70;99.90;;;;;;5008507;28;20038;-74
2022/09/27 11:39:53;;;;;;;4.85;1.33;;;11.70;99.90;;;;;;4997493;28;20030;-73
2022/09/27 11:42:24;;;;;;;4.57;1.45;;;11.70;99.90;;;;;;5007658;28;20539;-73
2022/09/27 11:45:30;;;;;;;5.65;1.60;;;11.80;99.90;;;;;;5008172;28;20108;-73
2022/09/27 11:48:22;;;;;;;7.05;1.58;;;11.80;99.90;;;;;;5007098;28;20125;-72
2022/09/27 11:51:05;;;;;;;3.20;1.05;;;11.90;99.90;;;;;;5008030;28;20053;-73
2022/09/27 11:54:05;;;;;;;3.22;0.98;;;12.00;99.90;;;;;;5012961;28;20052;-72
2022/09/27 11:57:04;;;;;;;3.95;1.30;;;12.10;99.90;;;;;;4988513;28;20018;-73
2022/09/27 11:59:44;;;;;;;6.65;1.10;;;12.20;99.90;;;;;;5003519;28;20049;-73
2022/09/27 12:02:22;;;;;;;7.07;1.20;;;12.30;99.90;;;;;;5007024;28;20413;-73
2022/09/27 12:04:56;;;;;;;7.57;1.50;;;12.30;99.90;;;;;;5007354;28;20536;-72
2022/09/27 12:07:53;;;;;;;9.18;1.38;;;12.40;99.90;;;;;;4997435;28;20398;-73
2022/09/27 12:10:20;;;;;;;8.55;1.38;;;12.40;99.90;;;;;;5007068;28;20045;-73
2022/09/27 12:12:52;;;;;;;9.05;1.40;;;12.50;99.90;;;;;;5014462;28;20064;-73
2022/09/27 12:15:21;;;;;;;6.28;0.98;;;12.60;99.90;;;;;;5027376;28;20045;-73
2022/09/27 12:17:55;;;;;;;6.18;0.98;;;12.70;99.90;;;;;;5021727;28;20025;-73
2022/09/27 12:20:29;;;;;;;7.38;1.20;;;12.80;99.90;;;;;;5030679;28;20029;-74
2022/09/27 12:23:24;;;;;;;6.33;1.00;;;12.90;99.90;;;;;;5036317;28;20428;-74
2022/09/27 12:25:55;;;;;;;4.32;1.08;;;13.20;99.90;;;;;;5010112;28;20041;-74
2022/09/27 12:28:44;;;;;;;8.85;1.23;;;13.40;99.90;;;;;;5023048;28;20136;-72
2022/09/27 12:31:28;;;;;;;5.10;0.80;;;13.70;99.90;;;;;;5025308;28;20036;-73
2022/09/27 12:34:15;;;;;;;4.55;0.98;;;13.90;99.90;;;;;;5023793;28;20452;-73
2022/09/27 12:36:48;;;;;;;4.03;1.00;;;13.90;99.90;;;;;;5022802;28;20111;-73
2022/09/27 12:39:21;;;;;;;4.80;0.80;;;13.90;99.90;;;;;;5028741;28;20038;-73
2022/09/27 12:42:04;;;;;;;5.53;0.95;;;13.90;99.90;;;;;;5029743;28;20021;-74
2022/09/27 12:44:38;;;;;;;7.32;0.75;;;13.80;99.90;;;;;;5022820;28;20087;-73
2022/09/27 12:47:15;;;;;;;4.20;1.10;;;13.70;99.90;;;;;;5029759;28;20456;-74
2022/09/27 12:50:03;;;;;;;6.18;0.90;;;13.70;99.90;;;;;;5029244;28;20405;-73
2022/09/27 12:52:32;;;;;;;5.75;1.05;;;13.60;99.90;;;;;;5024470;28;20053;-73
2022/09/27 12:55:10;;;;;;;7.15;1.02;;;13.50;99.90;;;;;;5029620;28;20109;-74
2022/09/27 12:58:14;;;;;;;9.15;1.17;;;13.40;99.90;;;;;;5029403;28;20025;-73
2022/09/27 13:00:56;;;;;;;8.98;1.55;;;13.40;99.90;;;;;;5029119;28;20056;-75
2022/09/27 13:03:28;;;;;;;6.85;1.10;;;13.30;99.90;;;;;;5028372;28;20040;-73
2022/09/27 13:06:24;;;;;;;8.50;1.70;;;13.30;99.90;;;;;;5029963;28;20018;-74
2022/09/27 13:08:58;;;;;;;7.18;1.55;;;13.30;99.90;;;;;;5017033;28;20488;-74
2022/09/27 13:11:28;;;;;;;6.88;1.83;;;13.30;99.90;;;;;;5029817;28;20033;-74
2022/09/27 13:13:56;;;;;;;7.60;1.27;;;13.20;99.90;;;;;;5029323;28;20140;-75
2022/09/27 13:16:24;;;;;;;9.77;1.65;;;13.20;99.90;;;;;;5029482;28;20030;-74
2022/09/27 13:18:54;;;;;;;11.90;1.63;;;13.20;99.90;;;;;;5029620;28;20037;-73